|
公曆農曆對照

機場天氣預報 (TAF)

機場天氣預報 (TAF) 載述關於某個機場在預測期內預料會出現的氣象要素。

香港天文台在 17 年 11 月 19 日 07 時 00 分最新發出的香港國際機場天氣預報

TAF VHHH 182300Z 1900/2006 05010KT 8000 FEW015 SCT025 BKN045 TX22/1906Z TX20/2006Z TN19/1923Z=

(下次更新時間:17年11月19日13時00分)

機場天氣預報電碼經解碼後:-

香港天文台發出 2017 年 11 月 19 日 00 協調世界時 至 2017 年 11 月 20 日 06 協調世界時 的機場天氣預報:
 

時間(協調世界時) 能見度 天氣狀況 雲層 雲層高度
2017 年 11 月 19 日 00 時 至 2017 年 11 月 20 日 06 時 東北風 (050 o) 10 海里/小時 8 公里 無重要天氣狀況
1-2
3-4
5-7
1500 呎
2500 呎
4500 呎

時間(協調世界時) 氣溫
2017 年 11 月 19 日 06 時
最高22 oC
2017 年 11 月 20 日 06 時
最高20 oC
2017 年 11 月 19 日 23 時
最低19 oC

份: 雲層是以估計天空被雲遮蔽之總面積來評定。把天空分為八份,1 份即是八份之一的天空被雲遮蔽,2 份即是八份之二的天空被雲遮蔽,如此類推。
  0 份 = 天朗氣清,1-2 份 = 稀薄雲層,3-4 份 = 零散雲層,5-7 份 = 疏鬆雲層,8 份 = 天色陰暗。
若想進一步瞭解機場天氣預報(TAF)的編碼,請參看剖析TAF電碼的意義
若想進一步瞭解雲,請參看香港常見的雲
 
香港國際機場航空天氣報告資料 本港地區航空天氣預報
 
版權及聲明